Stadtlohn-Vreden Airfield

EDLS · North Rhine-Westphalia, 德国

METAR的历史 EDLS · Stadtlohn-Vreden Airfield

下面你可以看到过去几天的METARs。 选择年份以浏览从2007年开始的旧METAR。

2023年3月30日

时间 代码 天气 温度 能见度 天花板 METAR/SPECI
03:20
V
11 °C 10 km+ - 170° 170° 6 kt METAR EDDG 300120Z AUTO 17006KT CAVOK 11/08 Q1006 NOSIG
02:50
V
10 °C 10 km+ - 150° 150° 4 kt METAR EDDG 300050Z AUTO 15004KT CAVOK 10/08 Q1006 NOSIG
02:20
V
9 °C 10 km+ - 130° 130° 3 kt METAR EDDG 300020Z AUTO 13003KT 090V170 CAVOK 09/08 Q1006 NOSIG
01:50
V
10 °C 10 km+ - 140° 140° 4 kt METAR EDDG 292350Z AUTO 14004KT CAVOK 10/08 Q1007 NOSIG
01:20
V
11 °C 10 km+ - 140° 140° 5 kt METAR EDDG 292320Z AUTO 14005KT CAVOK 11/08 Q1007 NOSIG
00:50
V
11 °C 10 km+ - 150° 150° 4 kt METAR EDDG 292250Z AUTO 15004KT CAVOK 11/08 Q1007 NOSIG
00:20
V
11 °C 10 km+ - 130° 130° 5 kt METAR EDDG 292220Z AUTO 13005KT 110V170 CAVOK 11/08 Q1008 NOSIG

2023年3月29日

时间 代码 天气 温度 能见度 天花板 METAR/SPECI
23:50
V
11 °C 10 km+ - 130° 130° 4 kt METAR EDDG 292150Z AUTO 13004KT CAVOK 11/08 Q1008 NOSIG
23:20
V
11 °C 10 km+ - Var Var 4 kt METAR EDDG 292120Z AUTO VRB04KT CAVOK 11/09 Q1008 NOSIG
22:50
V
11 °C 10 km+ - 120° 120° 5 kt METAR EDDG 292050Z AUTO 12005KT 080V160 9999 FEW046 11/09 Q1009 NOSIG
22:20
V
11 °C 10 km+ 3.100 ft 100° 100° 3 kt METAR EDDG 292020Z AUTO 10003KT 050V150 9999 BKN031 BKN042 11/09 Q1009 NOSIG
21:50
M
11 °C 10 km+ 2.900 ft 100° 100° 3 kt METAR EDDG 291950Z AUTO 10003KT 010V170 9999 OVC029 11/09 Q1010 NOSIG
21:20
M
11 °C 10 km+ 2.600 ft 110° 110° 3 kt METAR EDDG 291920Z AUTO 11003KT 070V160 9999 OVC026 11/09 Q1010 NOSIG
20:50
M
11 °C 10 km+ 2.700 ft 100° 100° 5 kt METAR EDDG 291850Z AUTO 10005KT 070V140 9999 -DZ OVC027 11/09 Q1010 NOSIG
20:20
V
11 °C 10 km+ 3.200 ft 080° 080° 3 kt METAR EDDG 291820Z AUTO 08003KT 040V120 9999 -RA BKN032 BKN047 11/09 Q1011 NOSIG
19:50
V
12 °C 10 km+ - Var Var 2 kt METAR EDDG 291750Z AUTO VRB02KT 9999 FEW049 12/09 Q1011 NOSIG
19:20
V
12 °C 10 km+ - 140° 140° 3 kt METAR EDDG 291720Z AUTO 14003KT CAVOK 12/09 Q1011 NOSIG
18:50
V
12 °C 10 km+ - 130° 130° 3 kt METAR EDDG 291650Z AUTO 13003KT 090V160 9999 -SHRA FEW035 FEW///CB 12/09 Q1011 NOSIG
18:20
V
13 °C 10 km+ 3.200 ft 140° 140° 3 kt METAR EDDG 291620Z AUTO 14003KT 9999 VCSH BKN032 FEW///CB 13/09 Q1012 TEMPO RA BKN014
17:50
V
13 °C 10 km+ 3.500 ft 180° 180° 4 kt METAR EDDG 291550Z AUTO 18004KT 140V220 9999 BKN035 13/08 Q1012 NOSIG
17:20
V
12 °C 10 km+ 4.300 ft 180° 180° 5 kt METAR EDDG 291520Z AUTO 18005KT 150V220 9999 SCT024 BKN043 12/09 Q1012 TEMPO BKN014
16:50
M
12 °C 10 km+ 2.500 ft 180° 180° 5 kt METAR EDDG 291450Z AUTO 18005KT 130V200 9999 BKN025 BKN044 12/09 Q1013 TEMPO BKN014
16:20
M
11 °C 10 km+ 2.200 ft 190° 190° 4 kt METAR EDDG 291420Z AUTO 19004KT 140V220 9999 FEW011 OVC022 11/09 Q1013 REDZ TEMPO BKN010
15:50
M
10 °C 10 km+ 1.500 ft 200° 200° 5 kt METAR EDDG 291350Z AUTO 20005KT 170V230 9999 FEW006 OVC015 10/08 Q1014 REDZ TEMPO BKN013
15:20
I
10 °C 3,2 km 1.200 ft 210° 210° 7 kt METAR EDDG 291320Z AUTO 21007KT 3200 -RADZ BR FEW006 OVC012 10/08 Q1014 TEMPO 6000 NSW BKN008
14:50
M
10 °C 10 km+ 1.100 ft 210° 210° 6 kt METAR EDDG 291250Z AUTO 21006KT 160V260 9999 OVC011 10/08 Q1014 TEMPO BKN009
14:20
I
10 °C 10 km+ 900 ft 230° 230° 8 kt METAR EDDG 291220Z AUTO 23008KT 200V260 9999 OVC009 10/08 Q1014 TEMPO BKN011
13:50
I
9 °C 7 km 900 ft 200° 200° 6 kt METAR EDDG 291150Z AUTO 20006KT 150V230 7000 OVC009 09/08 Q1014 TEMPO BKN011
13:20
M
9 °C 10 km+ 1.100 ft 210° 210° 6 kt METAR EDDG 291120Z AUTO 21006KT 170V250 9999 OVC011 09/07 Q1015 TEMPO 4000 -DZ BKN009
12:50
M
9 °C 10 km+ 1.500 ft 220° 220° 7 kt METAR EDDG 291050Z AUTO 22007KT 9999 FEW008 BKN015 OVC028 09/07 Q1015 REDZ TEMPO 4500 -DZ BKN013
12:20
M
9 °C 9 km 1.700 ft 220° 220° 6 kt METAR EDDG 291020Z AUTO 22006KT 170V250 9000 -DZ FEW006 BKN017 09/06 Q1015 NOSIG
11:50
M
9 °C 10 km+ 1.800 ft 220° 220° 8 kt METAR EDDG 290950Z AUTO 22008KT 180V250 9999 -DZ BKN018 09/06 Q1015 NOSIG
11:20
M
9 °C 10 km+ 2.100 ft 200° 200° 7 kt METAR EDDG 290920Z AUTO 20007KT 170V230 9999 OVC021 09/05 Q1015 NOSIG
10:50
M
8 °C 10 km+ 2.100 ft 200° 200° 5 kt METAR EDDG 290850Z AUTO 20005KT 170V230 9999 OVC021 08/05 Q1015 NOSIG
10:20
M
7 °C 10 km+ 2.200 ft 190° 190° 6 kt METAR EDDG 290820Z AUTO 19006KT 150V230 9999 OVC022 07/04 Q1015 NOSIG
09:50
M
7 °C 10 km+ 2.100 ft 200° 200° 6 kt METAR EDDG 290750Z AUTO 20006KT 160V220 9999 OVC021 07/04 Q1015 NOSIG
09:20
M
6 °C 10 km+ 2.200 ft 180° 180° 6 kt METAR EDDG 290720Z AUTO 18006KT 140V230 9999 OVC022 06/04 Q1015 NOSIG
08:50
M
6 °C 10 km+ 2.200 ft 200° 200° 6 kt METAR EDDG 290650Z AUTO 20006KT 160V230 9999 FEW012 OVC022 06/04 Q1015 NOSIG
08:20
M
6 °C 10 km+ 1.200 ft 200° 200° 5 kt METAR EDDG 290620Z AUTO 20005KT 150V250 9999 BKN012 BKN018 OVC022 06/03 Q1015 BECMG BKN020
07:50
M
6 °C 10 km+ 2.500 ft 180° 180° 6 kt METAR EDDG 290550Z AUTO 18006KT 150V220 9999 FEW012 SCT019 OVC025 06/02 Q1015 TEMPO BKN012
07:20
M
5 °C 10 km+ 3.000 ft 160° 160° 4 kt METAR EDDG 290520Z AUTO 16004KT 9999 BKN030 OVC045 05/02 Q1015 NOSIG
06:50
V
5 °C 10 km+ 3.200 ft 150° 150° 4 kt METAR EDDG 290450Z AUTO 15004KT 9999 OVC032 05/02 Q1015 NOSIG
06:20
V
5 °C 10 km+ 3.800 ft 160° 160° 5 kt METAR EDDG 290420Z AUTO 16005KT 120V220 9999 SCT032 BKN038 OVC047 05/02 Q1015 NOSIG
05:50
V
5 °C 10 km+ - 150° 150° 5 kt METAR EDDG 290350Z AUTO 15005KT 120V180 9999 FEW040 05/02 Q1015 NOSIG
05:20
V
5 °C 10 km+ - 150° 150° 6 kt METAR EDDG 290320Z AUTO 15006KT 120V180 CAVOK 05/02 Q1015 NOSIG
04:50
V
5 °C 10 km+ - 150° 150° 5 kt METAR EDDG 290250Z AUTO 15005KT 120V180 CAVOK 05/02 Q1016 NOSIG
04:20
V
5 °C 10 km+ - 150° 150° 6 kt METAR EDDG 290220Z AUTO 15006KT 110V230 9999 FEW047 05/02 Q1016
03:50
V
5 °C 10 km+ - 140° 140° 6 kt METAR EDDG 290150Z AUTO 14006KT 120V180 9999 SCT048 05/02 Q1016 NOSIG
03:20
V
5 °C 10 km+ - 150° 150° 5 kt METAR EDDG 290120Z AUTO 15005KT 120V180 CAVOK 05/02 Q1017 NOSIG
02:50
V
5 °C 10 km+ - 150° 150° 5 kt METAR EDDG 290050Z AUTO 15005KT CAVOK 05/02 Q1017 NOSIG
02:20
V
5 °C 10 km+ - 170° 170° 6 kt METAR EDDG 290020Z AUTO 17006KT CAVOK 05/02 Q1018 NOSIG
01:50
V
5 °C 10 km+ - 180° 180° 6 kt METAR EDDG 282350Z AUTO 18006KT 9999 -RA FEW017 05/02 Q1018 NOSIG
01:20
V
6 °C 10 km+ - 200° 200° 7 kt METAR EDDG 282320Z AUTO 20007KT 170V230 9999 -RA FEW026 06/02 Q1019 NOSIG
00:50
V
6 °C 10 km+ - 210° 210° 9 kt METAR EDDG 282250Z AUTO 21009KT 160V240 9999 FEW042 06/01 Q1019 NOSIG
00:20
V
6 °C 10 km+ - 210° 210° 8 kt METAR EDDG 282220Z AUTO 21008KT 170V240 CAVOK 06/01 Q1019 NOSIG

2023年3月28日

时间 代码 天气 温度 能见度 天花板 METAR/SPECI
23:50
V
7 °C 10 km+ - 220° 220° 11 kt METAR EDDG 282150Z AUTO 22011KT 190V250 9999 FEW045 07/01 Q1019 BECMG 16006KT
23:20
V
7 °C 10 km+ - 210° 210° 9 kt METAR EDDG 282120Z AUTO 21009KT 160V240 CAVOK 07/M01 Q1019 NOSIG
22:50
V
6 °C 10 km+ - 160° 160° 4 kt METAR EDDG 282050Z AUTO 16004KT CAVOK 06/M01 Q1019 TEMPO 22010KT
22:20
V
6 °C 10 km+ - 150° 150° 5 kt METAR EDDG 282020Z AUTO 15005KT CAVOK 06/M02 Q1019 TEMPO 21010KT
21:50
V
6 °C 10 km+ - 140° 140° 4 kt METAR EDDG 281950Z AUTO 14004KT CAVOK 06/M02 Q1019 NOSIG
21:20
V
6 °C 10 km+ - 140° 140° 3 kt METAR EDDG 281920Z AUTO 14003KT CAVOK 06/M02 Q1020 NOSIG
20:50
V
6 °C 10 km+ - 140° 140° 4 kt METAR EDDG 281850Z AUTO 14004KT CAVOK 06/M02 Q1020 NOSIG
20:20
V
7 °C 10 km+ - 150° 150° 3 kt METAR EDDG 281820Z AUTO 15003KT CAVOK 07/M02 Q1020 NOSIG
19:50
V
7 °C 10 km+ - 150° 150° 3 kt METAR EDDG 281750Z AUTO 15003KT CAVOK 07/M02 Q1020 NOSIG
19:20
V
8 °C 10 km+ - 180° 180° 4 kt METAR EDDG 281720Z AUTO 18004KT CAVOK 08/M03 Q1021 NOSIG
18:50
V
8 °C 10 km+ - 200° 200° 6 kt METAR EDDG 281650Z AUTO 20006KT 160V240 CAVOK 08/M04 Q1021 NOSIG
18:20
V
8 °C 10 km+ - 190° 190° 8 kt METAR EDDG 281620Z AUTO 19008KT 160V220 CAVOK 08/M03 Q1021 NOSIG
17:50
V
8 °C 10 km+ - 210° 210° 7 kt METAR EDDG 281550Z AUTO 21007KT 160V240 CAVOK 08/M03 Q1022 NOSIG
17:20
V
8 °C 10 km+ - 200° 200° 10 kt METAR EDDG 281520Z AUTO 20010KT 160V230 CAVOK 08/M03 Q1022 NOSIG
16:50
V
8 °C 10 km+ - 180° 180° 9 kt METAR EDDG 281450Z AUTO 18009KT 140V210 CAVOK 08/M02 Q1023 NOSIG
16:20
V
8 °C 10 km+ - 200° 200° 10 kt METAR EDDG 281420Z AUTO 20010KT 150V270 CAVOK 08/M04 Q1023 NOSIG
15:50
V
8 °C 10 km+ - 170° 170° 8 kt METAR EDDG 281350Z AUTO 17008KT 150V210 CAVOK 08/M02 Q1023 NOSIG
15:20
V
8 °C 10 km+ - 220° 220° 10 kt METAR EDDG 281320Z AUTO 22010KT 180V260 9999 FEW038 08/M03 Q1024 NOSIG
14:50
V
7 °C 10 km+ - 220° 220° 10 kt METAR EDDG 281250Z AUTO 22010KT 180V250 9999 FEW039 07/M02 Q1024 NOSIG
14:20
V
7 °C 10 km+ 4.100 ft 210° 210° 10 kt METAR EDDG 281220Z AUTO 21010KT 180V240 9999 BKN041 07/M03 Q1025 NOSIG
13:50
V
7 °C 10 km+ 4.200 ft 210° 210° 10 kt METAR EDDG 281150Z AUTO 21010KT 170V240 9999 BKN042 07/M03 Q1025 NOSIG
13:20
V
7 °C 10 km+ - 220° 220° 9 kt METAR EDDG 281120Z AUTO 22009KT 180V250 9999 FEW037 07/M03 Q1026 NOSIG
12:50
V
6 °C 10 km+ 4.100 ft 230° 230° 9 kt METAR EDDG 281050Z AUTO 23009KT 190V280 9999 BKN041 06/M02 Q1026 NOSIG
12:20
V
6 °C 10 km+ - 230° 230° 9 kt METAR EDDG 281020Z AUTO 23009KT 200V270 9999 SCT040 06/M02 Q1026 NOSIG
11:50
V
6 °C 10 km+ - 240° 240° 10 kt METAR EDDG 280950Z AUTO 24010KT 9999 FEW032 SCT042 06/M02 Q1026 NOSIG
11:20
V
6 °C 10 km+ - 260° 260° 10 kt METAR EDDG 280920Z AUTO 26010KT 9999 FEW027 06/M01 Q1026 NOSIG
10:50
V
5 °C 10 km+ - 250° 250° 7 kt METAR EDDG 280850Z AUTO 25007KT CAVOK 05/00 Q1026 NOSIG
10:20
V
5 °C 10 km+ - 250° 250° 6 kt METAR EDDG 280820Z AUTO 25006KT 220V280 9999 FEW043 05/00 Q1026 NOSIG
09:50
V
4 °C 10 km+ - 260° 260° 8 kt METAR EDDG 280750Z AUTO 26008KT 230V290 9999 FEW024 04/M00 Q1026 NOSIG
09:20
V
2 °C 10 km+ - 260° 260° 5 kt METAR EDDG 280720Z AUTO 26005KT 230V290 9999 FEW045 02/M00 Q1026 NOSIG
08:50
V
2 °C 10 km+ - 250° 250° 3 kt METAR EDDG 280650Z AUTO 25003KT 230V300 9999 FEW048 02/M01 Q1026 NOSIG
08:20
V
0 °C 10 km+ - 240° 240° 3 kt METAR EDDG 280620Z AUTO 24003KT 210V270 CAVOK 00/M01 Q1026 NOSIG
07:50
V
-1 °C 10 km+ - 230° 230° 2 kt METAR EDDG 280550Z AUTO 23002KT CAVOK M01/M02 Q1026 NOSIG
07:20
V
-1 °C 10 km+ - 240° 240° 4 kt METAR EDDG 280520Z AUTO 24004KT 9999 SCT044 M01/M02 Q1025 NOSIG
06:50
V
-1 °C 10 km+ - 250° 250° 6 kt METAR EDDG 280450Z AUTO 25006KT CAVOK M01/M02 Q1025 NOSIG
06:20
V
-1 °C 10 km+ - 250° 250° 5 kt METAR EDDG 280420Z AUTO 25005KT CAVOK M01/M02 Q1025 NOSIG
05:50
V
0 °C 10 km+ - 240° 240° 6 kt METAR EDDG 280350Z AUTO 24006KT CAVOK M00/M02 Q1025 NOSIG
05:20
V
1 °C 10 km+ - 240° 240° 6 kt METAR EDDG 280320Z AUTO 24006KT CAVOK 01/M02 Q1024 NOSIG
04:50
V
1 °C 10 km+ - 240° 240° 4 kt METAR EDDG 280250Z AUTO 24004KT CAVOK 01/M02 Q1025 NOSIG
04:20
V
0 °C 10 km+ - 270° 270° 6 kt METAR EDDG 280220Z AUTO 27006KT CAVOK 00/M02 Q1025 NOSIG
03:50
V
0 °C 10 km+ - 260° 260° 6 kt METAR EDDG 280150Z AUTO 26006KT CAVOK 00/M02 Q1025 NOSIG
03:20
V
1 °C 10 km+ - 260° 260° 8 kt METAR EDDG 280120Z AUTO 26008KT CAVOK 01/M01 Q1025 NOSIG
02:50
V
2 °C 10 km+ - 260° 260° 8 kt METAR EDDG 280050Z AUTO 26008KT CAVOK 02/M01 Q1025 NOSIG
02:20
V
2 °C 10 km+ 4.400 ft 260° 260° 7 kt METAR EDDG 280020Z AUTO 26007KT 9999 BKN044 02/M01 Q1024 NOSIG
01:50
V
1 °C 10 km+ - 260° 260° 7 kt METAR EDDG 272350Z AUTO 26007KT CAVOK 01/M02 Q1024 NOSIG
01:20
V
2 °C 10 km+ - 270° 270° 7 kt METAR EDDG 272320Z AUTO 27007KT CAVOK 02/M01 Q1024 NOSIG
00:50
V
2 °C 10 km+ - 270° 270° 8 kt METAR EDDG 272250Z AUTO 27008KT 9999 FEW034 02/M02 Q1024 NOSIG
00:20
V
2 °C 10 km+ - 270° 270° 8 kt METAR EDDG 272220Z AUTO 27008KT 9999 SCT035 SCT044 02/M01 Q1023 NOSIG

2023年3月27日

时间 代码 天气 温度 能见度 天花板 METAR/SPECI
23:50
V
2 °C 10 km+ - 270° 270° 7 kt METAR EDDG 272150Z AUTO 27007KT 9999 SCT038 SCT044 02/M01 Q1023 NOSIG
23:20
V
2 °C 10 km+ - 270° 270° 8 kt METAR EDDG 272120Z AUTO 27008KT 9999 FEW048 02/M01 Q1023 NOSIG
22:50
V
3 °C 10 km+ - 270° 270° 7 kt METAR EDDG 272050Z AUTO 27007KT 9999 FEW046 03/M01 Q1023 NOSIG
22:20
V
3 °C 10 km+ - 280° 280° 6 kt METAR EDDG 272020Z AUTO 28006KT 9999 SCT044 03/M02 Q1023 NOSIG
21:50
V
3 °C 10 km+ - 290° 290° 7 kt METAR EDDG 271950Z AUTO 29007KT CAVOK 03/M02 Q1023 NOSIG
21:20
V
3 °C 10 km+ - 290° 290° 7 kt METAR EDDG 271920Z AUTO 29007KT 9999 FEW035 03/M01 Q1023 NOSIG
20:50
V
4 °C 10 km+ - 300° 300° 8 kt METAR EDDG 271850Z AUTO 30008KT 280V340 9999 SCT038 04/M01 Q1022 NOSIG
20:20
V
4 °C 10 km+ - 290° 290° 9 kt METAR EDDG 271820Z AUTO 29009KT 260V330 9999 FEW041 04/M01 Q1022 NOSIG
19:50
V
4 °C 10 km+ - 300° 300° 9 kt METAR EDDG 271750Z AUTO 30009KT 270V340 CAVOK 04/M02 Q1022 NOSIG
19:20
V
5 °C 10 km+ - 290° 290° 6 kt METAR EDDG 271720Z AUTO 29006KT 260V330 CAVOK 05/00 Q1021 NOSIG
18:50
V
4 °C 10 km+ - 300° 300° 7 kt METAR EDDG 271650Z AUTO 30007KT 9999 VCSH FEW019 SCT046 FEW///CB 04/01 Q1021 NOSIG
18:20
V
6 °C 10 km+ - 320° 320° 15 kt METAR EDDG 271620Z AUTO 32015KT 280V360 9999 -SHRA SCT037 SCT045 FEW///CB 06/M01 Q1021 TEMPO 31015G25KT SHGS
17:50
V
5 °C 10 km+ 4.800 ft 340° 340° 10 kt METAR EDDG 271550Z AUTO 34010KT 300V030 9999 -SHRA SCT031 BKN048 FEW///CB 05/00 Q1020 RESHRA TEMPO 31015G25KT SHGS
17:20
V
6 °C 10 km+ - 290° 290° 8 kt METAR EDDG 271520Z AUTO 29008KT 260V320 9999 VCSH FEW///CB 06/M00 Q1020 TEMPO 31015G25KT SHGS
16:50
V
4 °C 10 km+ - 290° 290° 18 - 30 kt METAR EDDG 271450Z AUTO 29018G30KT 9999 -SHRA FEW006 FEW///CB 04/M00 Q1020 RESHRA TEMPO 4000 SHGS
16:20
V
6 °C 10 km+ - 270° 270° 12 kt METAR EDDG 271420Z AUTO 27012KT 9999 SHRA FEW035 FEW///CB 06/00 Q1020 TEMPO 31015G25KT 4000
15:50
V
6 °C 10 km+ - 290° 290° 11 - 22 kt METAR EDDG 271350Z AUTO 29011G22KT 250V330 9999 SHRA FEW///CB 06/M00 Q1019 TEMPO 31020G30KT 4000
15:20
V
5 °C 10 km+ - 270° 270° 14 kt METAR EDDG 271320Z AUTO 27014KT 9999 -SHRA FEW024 FEW///CB 05/01 Q1019 RESHRA TEMPO 31020G30KT 4000 SHGS
14:50
V
7 °C 10 km+ 3.900 ft 290° 290° 14 kt METAR EDDG 271250Z AUTO 29014KT 260V320 9999 -SHRA BKN039 BKN048 FEW///CB 07/M01 Q1019 TEMPO 31015G25KT 4000 SHGS
14:20
V
8 °C 10 km+ - 290° 290° 13 kt METAR EDDG 271220Z AUTO 29013KT 260V330 9999 FEW039 08/M01 Q1019 TEMPO 31015G25KT 4000 SHGS BKN020CB
13:50
V
6 °C 10 km+ - 290° 290° 13 kt METAR EDDG 271150Z AUTO 29013KT 250V350 9999 VCSH FEW036 SCT043 FEW///CB 06/M01 Q1019 TEMPO 31015G25KT 4000 SHGS
13:20
V
7 °C 10 km+ - 290° 290° 13 kt METAR EDDG 271120Z AUTO 29013KT 250V330 9999 FEW019 07/M01 Q1019 TEMPO 30015G25KT
12:50
V
5 °C 10 km+ - 300° 300° 11 kt METAR EDDG 271050Z AUTO 30011KT 280V340 9999 -SHRA FEW022 FEW///CB 05/M01 Q1019 TEMPO SHGS
12:20
V
7 °C 10 km+ - 290° 290° 14 kt METAR EDDG 271020Z AUTO 29014KT 260V340 9999 VCSH SCT039 FEW///TCU 07/M03 Q1018 TEMPO 30015G25KT
11:50
V
6 °C 10 km+ 3.500 ft 300° 300° 11 kt METAR EDDG 270950Z AUTO 30011KT 9999 BKN035 BKN046 06/M01 Q1018 TEMPO 30015G25KT
11:20
V
5 °C 10 km+ 3.700 ft 310° 310° 11 kt METAR EDDG 270920Z AUTO 31011KT 270V340 9999 SCT029 BKN037 BKN045 05/M01 Q1018 NOSIG
10:50
V
5 °C 10 km+ - 310° 310° 11 kt METAR EDDG 270850Z AUTO 31011KT 280V350 9999 SCT024 05/M00 Q1018 NOSIG
10:20
V
5 °C 10 km+ - 320° 320° 12 kt METAR EDDG 270820Z AUTO 32012KT 9999 FEW023 05/M01 Q1018 NOSIG
09:50
V
4 °C 10 km+ - 290° 290° 9 kt METAR EDDG 270750Z AUTO 29009KT 260V320 CAVOK 04/M00 Q1017 NOSIG

我们和第三方通过cookies跟踪您在我们网站上的互联网行为。如果你继续,我们认为你同意我们的饼干政策